Time;durP1;ratioP1;P1;durP2;ratioP2;P2;SDS_P1;SDS_P2;PMS_P1;PMS_P2;Temp;Humidity;BMP_temperature;BMP_pressure;BME280_temperature;BME280_humidity;BME280_pressure;Samples;Min_cycle;Max_cycle;Signal;HPM_P1;HPM_P2
2024/04/13 00:00:44;;;;;;;7.60;4.85;;;11.50;99.90;;;;;;5454543;26;20272;-88
2024/04/13 00:03:10;;;;;;;7.90;5.03;;;11.40;99.90;;;;;;5453939;26;20331;-88
2024/04/13 00:05:39;;;;;;;6.68;4.88;;;11.40;99.90;;;;;;5452563;26;20310;-89
2024/04/13 00:08:06;;;;;;;7.43;4.55;;;11.30;99.90;;;;;;5455443;26;20250;-89
2024/04/13 00:10:34;;;;;;;6.07;4.50;;;11.20;99.90;;;;;;5457569;26;20276;-89
2024/04/13 00:13:04;;;;;;;8.48;5.00;;;11.20;99.90;;;;;;5456696;26;20293;-89
2024/04/13 00:15:33;;;;;;;5.28;4.13;;;11.20;99.90;;;;;;5441902;26;20234;-90
2024/04/13 00:17:59;;;;;;;5.93;4.38;;;11.20;99.90;;;;;;5460415;26;20226;-90
2024/04/13 00:20:28;;;;;;;7.82;4.53;;;11.10;99.90;;;;;;5456243;26;20604;-90
2024/04/13 00:22:55;;;;;;;6.75;4.88;;;11.00;99.90;;;;;;5455335;26;20242;-89
2024/04/13 00:25:24;;;;;;;6.20;4.38;;;10.90;99.90;;;;;;5448225;26;20368;-90
2024/04/13 00:27:50;;;;;;;8.55;4.70;;;11.00;99.90;;;;;;5460642;26;20242;-89
2024/04/13 00:30:22;;;;;;;6.28;3.92;;;11.00;99.90;;;;;;5466437;26;20310;-89
2024/04/13 00:32:49;;;;;;;6.20;4.20;;;11.10;99.90;;;;;;5466390;26;20230;-89
2024/04/13 00:35:20;;;;;;;6.72;4.05;;;11.10;99.90;;;;;;5466730;26;20234;-89
2024/04/13 00:37:46;;;;;;;7.22;4.10;;;11.10;99.90;;;;;;5475219;26;20233;-89
2024/04/13 00:40:15;;;;;;;5.80;4.07;;;11.10;99.90;;;;;;5468684;26;20242;-90
2024/04/13 00:42:41;;;;;;;5.65;4.10;;;11.10;99.90;;;;;;5468409;26;20265;-89
2024/04/13 00:45:11;;;;;;;10.63;3.83;;;11.10;99.90;;;;;;5467647;26;20294;-89
2024/04/13 00:47:40;;;;;;;7.20;4.15;;;11.00;99.90;;;;;;5465932;26;20260;-88
2024/04/13 00:50:11;;;;;;;7.20;4.25;;;11.00;99.90;;;;;;5463963;26;20286;-88
2024/04/13 00:52:39;;;;;;;5.43;3.78;;;10.80;99.90;;;;;;5468145;26;20242;-89
2024/04/13 00:55:09;;;;;;;5.80;3.67;;;10.70;99.90;;;;;;5460873;26;20299;-89
2024/04/13 00:57:36;;;;;;;6.88;3.95;;;10.50;99.90;;;;;;5475820;26;20245;-88
2024/04/13 01:00:06;;;;;;;4.60;3.55;;;10.30;99.90;;;;;;5468162;26;20272;-88
2024/04/13 01:02:33;;;;;;;8.73;4.38;;;10.20;99.90;;;;;;5456441;26;20672;-88
2024/04/13 01:05:07;;;;;;;6.03;3.65;;;10.20;99.90;;;;;;5444180;26;20272;-88
2024/04/13 01:07:33;;;;;;;6.93;4.22;;;10.20;99.90;;;;;;5457715;26;20320;-88
2024/04/13 01:10:05;;;;;;;6.93;4.25;;;10.10;99.90;;;;;;5450809;26;20247;-88
2024/04/13 01:12:32;;;;;;;9.80;4.20;;;10.10;99.90;;;;;;5451050;26;20233;-88
2024/04/13 01:15:02;;;;;;;6.50;4.03;;;10.10;99.90;;;;;;5454191;26;20226;-88
2024/04/13 01:17:28;;;;;;;5.30;4.20;;;10.10;99.90;;;;;;5457458;26;20681;-89
2024/04/13 01:19:57;;;;;;;8.20;4.32;;;10.10;99.90;;;;;;5457534;26;20285;-89
2024/04/13 01:22:26;;;;;;;5.78;3.88;;;10.10;99.90;;;;;;5458526;26;20409;-88
2024/04/13 01:24:58;;;;;;;6.85;3.95;;;10.10;99.90;;;;;;5458729;26;20300;-88
2024/04/13 01:27:25;;;;;;;10.48;3.95;;;10.00;99.90;;;;;;5449631;26;20367;-88
2024/04/13 01:29:54;;;;;;;4.78;3.67;;;10.10;99.90;;;;;;5446332;26;20297;-88
2024/04/13 01:32:20;;;;;;;7.50;4.43;;;10.10;99.90;;;;;;5457657;26;20833;-89
2024/04/13 01:34:49;;;;;;;8.95;4.28;;;10.20;99.90;;;;;;5451164;26;20272;-88
2024/04/13 01:37:15;;;;;;;8.60;3.92;;;10.30;99.90;;;;;;5448164;26;20342;-89
2024/04/13 01:39:44;;;;;;;6.05;3.67;;;10.30;99.90;;;;;;5449701;26;20242;-90
2024/04/13 01:42:13;;;;;;;6.78;3.95;;;10.40;99.90;;;;;;5463356;26;20245;-89
2024/04/13 01:44:42;;;;;;;6.10;3.83;;;10.40;99.90;;;;;;5455781;26;20776;-89
2024/04/13 01:47:08;;;;;;;8.35;4.15;;;10.50;99.90;;;;;;5459258;26;20238;-88
2024/04/13 01:49:37;;;;;;;8.48;4.20;;;10.40;99.90;;;;;;5454380;26;20310;-89
2024/04/13 01:52:04;;;;;;;5.95;4.13;;;10.40;99.90;;;;;;5457972;26;20234;-89
2024/04/13 01:54:33;;;;;;;7.13;3.58;;;10.30;99.90;;;;;;5442540;26;20230;-88
2024/04/13 01:56:59;;;;;;;7.20;4.22;;;10.20;99.90;;;;;;5458483;26;20252;-88
2024/04/13 01:59:31;;;;;;;7.80;4.32;;;10.10;99.90;;;;;;5455149;26;20291;-88
2024/04/13 02:01:57;;;;;;;6.38;4.40;;;10.10;99.90;;;;;;5458705;26;20330;-89
2024/04/13 02:04:26;;;;;;;5.68;4.35;;;10.00;99.90;;;;;;5457844;26;20276;-89
2024/04/13 02:06:52;;;;;;;5.68;3.97;;;10.00;99.90;;;;;;5453584;26;20335;-89
2024/04/13 02:09:22;;;;;;;9.02;4.40;;;9.80;99.90;;;;;;5455730;26;20237;-89
2024/04/13 02:11:48;;;;;;;6.53;4.07;;;9.80;99.90;;;;;;5457758;26;20222;-90
2024/04/13 02:14:18;;;;;;;6.57;4.07;;;9.70;99.90;;;;;;5442387;26;20286;-88
2024/04/13 02:16:46;;;;;;;6.43;4.18;;;9.70;99.90;;;;;;5457534;26;20573;-89
2024/04/13 02:19:15;;;;;;;6.80;4.32;;;9.70;99.90;;;;;;5458122;26;20234;-89
2024/04/13 02:21:42;;;;;;;7.07;4.38;;;9.70;99.90;;;;;;5449612;26;20696;-89
2024/04/13 02:24:11;;;;;;;5.85;4.03;;;9.70;99.90;;;;;;5457382;26;20580;-88
2024/04/13 02:26:37;;;;;;;11.55;4.75;;;9.70;99.90;;;;;;5450482;26;20261;-89
2024/04/13 02:29:06;;;;;;;6.82;4.78;;;9.80;99.90;;;;;;5456929;26;20253;-88
2024/04/13 02:31:33;;;;;;;11.90;4.97;;;9.70;99.90;;;;;;5456795;26;20363;-89
2024/04/13 02:34:04;;;;;;;5.65;4.10;;;9.80;99.90;;;;;;5449631;26;20629;-89
2024/04/13 02:36:30;;;;;;;7.10;4.38;;;9.70;99.90;;;;;;5449817;26;20421;-88
2024/04/13 02:39:01;;;;;;;7.45;4.85;;;9.70;99.90;;;;;;5457720;26;20285;-88
2024/04/13 02:41:27;;;;;;;5.10;3.70;;;9.60;99.90;;;;;;5449896;26;20246;-89
2024/04/13 02:43:57;;;;;;;8.27;4.15;;;9.60;99.90;;;;;;5458305;26;20218;-89
2024/04/13 02:46:23;;;;;;;5.93;4.10;;;9.50;99.90;;;;;;5458200;26;20241;-88
2024/04/13 02:48:52;;;;;;;6.47;5.10;;;9.50;99.90;;;;;;5451109;26;20238;-89
2024/04/13 02:51:21;;;;;;;6.35;4.57;;;9.60;99.90;;;;;;5459099;26;20758;-87
2024/04/13 02:53:50;;;;;;;5.90;4.03;;;9.70;99.90;;;;;;5466464;26;20297;-89
2024/04/13 02:56:16;;;;;;;5.50;3.92;;;9.70;99.90;;;;;;5458450;26;20235;-89
2024/04/13 02:58:45;;;;;;;7.40;4.50;;;9.70;99.90;;;;;;5466843;26;20602;-89
2024/04/13 03:01:11;;;;;;;7.70;4.85;;;9.70;99.90;;;;;;5452604;26;20272;-89
2024/04/13 03:03:40;;;;;;;7.68;5.20;;;9.60;99.90;;;;;;5467026;26;20234;-89
2024/04/13 03:06:08;;;;;;;5.95;4.10;;;9.60;99.90;;;;;;5462109;26;20268;-89
2024/04/13 03:08:41;;;;;;;6.38;4.10;;;9.50;99.90;;;;;;5451923;26;20229;-87
2024/04/13 03:11:08;;;;;;;6.60;4.10;;;9.50;99.90;;;;;;5459884;26;20280;-88
2024/04/13 03:13:37;;;;;;;6.03;4.00;;;9.50;99.90;;;;;;5462894;26;20230;-88
2024/04/13 03:16:05;;;;;;;6.82;4.53;;;9.50;99.90;;;;;;5461212;26;20233;-89
2024/04/13 03:18:34;;;;;;;8.93;5.05;;;9.50;99.90;;;;;;5459580;26;20242;-88
2024/04/13 03:21:01;;;;;;;7.35;3.90;;;9.50;99.90;;;;;;5464353;26;20277;-88
2024/04/13 03:23:31;;;;;;;6.38;4.28;;;9.50;99.90;;;;;;5467367;26;20278;-88
2024/04/13 03:26:00;;;;;;;9.93;4.20;;;9.50;99.90;;;;;;5468315;26;20268;-89
2024/04/13 03:28:31;;;;;;;5.15;4.40;;;9.50;99.90;;;;;;5463393;26;20293;-89
2024/04/13 03:30:58;;;;;;;6.25;4.75;;;9.50;99.90;;;;;;5458810;26;20241;-88
2024/04/13 03:33:27;;;;;;;6.20;4.32;;;9.50;99.90;;;;;;5462306;26;20233;-88
2024/04/13 03:35:56;;;;;;;6.15;4.38;;;9.40;99.90;;;;;;5460566;26;20253;-89
2024/04/13 03:38:25;;;;;;;6.75;4.88;;;9.40;99.90;;;;;;5460299;26;20340;-89
2024/04/13 03:41:05;;;;;;;6.03;4.32;;;9.40;99.90;;;;;;5450263;26;20242;-89
2024/04/13 03:43:34;;;;;;;8.23;4.95;;;9.30;99.90;;;;;;5444909;26;20250;-89
2024/04/13 03:46:00;;;;;;;8.20;4.70;;;9.30;99.90;;;;;;5451436;26;20245;-89
2024/04/13 03:48:29;;;;;;;6.53;4.60;;;9.30;99.90;;;;;;5457790;26;20241;-88
2024/04/13 03:50:56;;;;;;;7.88;4.70;;;9.30;99.90;;;;;;5455361;26;20230;-88
2024/04/13 03:53:25;;;;;;;8.25;5.20;;;9.30;99.90;;;;;;5447936;26;20596;-89
2024/04/13 03:55:51;;;;;;;7.20;5.18;;;9.20;99.90;;;;;;5447373;26;20234;-89
2024/04/13 03:58:23;;;;;;;10.18;5.38;;;9.20;99.90;;;;;;5451032;26;20242;-89
2024/04/13 04:00:49;;;;;;;7.00;4.90;;;9.20;99.90;;;;;;5470616;26;20621;-89
2024/04/13 04:03:18;;;;;;;8.18;5.20;;;9.30;99.90;;;;;;5453025;26;20246;-88
2024/04/13 04:05:47;;;;;;;9.18;5.22;;;9.40;99.90;;;;;;5458065;26;20268;-89
2024/04/13 04:08:16;;;;;;;11.65;5.28;;;9.40;99.90;;;;;;5456760;26;20281;-89
2024/04/13 04:10:42;;;;;;;10.90;5.82;;;9.40;99.90;;;;;;5455013;26;20277;-89
2024/04/13 04:13:11;;;;;;;7.32;5.20;;;9.50;99.90;;;;;;5452570;26;20306;-88
2024/04/13 04:15:41;;;;;;;9.25;5.18;;;9.50;99.90;;;;;;5457295;26;20341;-89
2024/04/13 04:18:11;;;;;;;7.75;5.47;;;9.50;99.90;;;;;;5450333;26;20572;-89
2024/04/13 04:20:39;;;;;;;8.13;5.20;;;9.50;99.90;;;;;;5443816;26;20269;-88
2024/04/13 04:23:08;;;;;;;8.55;4.82;;;9.60;99.90;;;;;;5445655;26;20282;-90
2024/04/13 04:25:34;;;;;;;8.95;5.18;;;9.50;99.90;;;;;;5452214;26;20337;-89
2024/04/13 04:28:03;;;;;;;8.35;5.07;;;9.50;99.90;;;;;;5456631;26;20288;-88
2024/04/13 04:30:29;;;;;;;7.75;5.63;;;9.50;99.90;;;;;;5450133;26;20242;-89
2024/04/13 04:33:01;;;;;;;10.27;6.13;;;9.50;99.90;;;;;;5439345;26;20253;-89
2024/04/13 04:35:27;;;;;;;12.50;5.55;;;9.60;99.90;;;;;;5458223;26;20575;-89
2024/04/13 04:37:56;;;;;;;8.27;5.25;;;9.60;99.90;;;;;;5453134;26;20297;-89
2024/04/13 04:40:23;;;;;;;9.70;5.65;;;9.60;99.90;;;;;;5434724;26;20297;-89
2024/04/13 04:42:52;;;;;;;5.40;4.55;;;9.60;99.90;;;;;;5463580;26;20264;-89
2024/04/13 04:45:18;;;;;;;8.57;4.85;;;9.50;99.90;;;;;;5471826;26;20233;-90
2024/04/13 04:47:49;;;;;;;7.93;5.35;;;9.40;99.90;;;;;;5472886;26;20242;-90
2024/04/13 04:50:18;;;;;;;8.93;5.90;;;9.40;99.90;;;;;;5469800;26;20241;-90
2024/04/13 04:52:47;;;;;;;8.27;5.72;;;9.40;99.90;;;;;;5447317;26;20273;-90
2024/04/13 04:55:13;;;;;;;9.02;5.45;;;9.40;99.90;;;;;;5449604;26;20249;-89
2024/04/13 04:57:42;;;;;;;13.55;6.32;;;9.40;99.90;;;;;;5454665;26;20633;-90
2024/04/13 05:00:13;;;;;;;7.53;4.95;;;9.30;99.90;;;;;;5446868;26;20265;-89
2024/04/13 05:02:43;;;;;;;11.35;5.30;;;9.30;99.90;;;;;;5456700;26;20591;-89
2024/04/13 05:05:09;;;;;;;10.27;5.25;;;9.30;99.90;;;;;;5445458;26;20340;-88
2024/04/13 05:07:40;;;;;;;8.40;5.90;;;9.30;99.90;;;;;;5452668;26;20284;-89
2024/04/13 05:10:08;;;;;;;8.95;5.68;;;9.30;99.90;;;;;;5449257;26;20343;-89
2024/04/13 05:12:37;;;;;;;8.30;5.28;;;9.40;99.90;;;;;;5449711;26;20233;-88
2024/04/13 05:15:04;;;;;;;12.88;5.82;;;9.40;99.90;;;;;;5454416;26;20233;-89
2024/04/13 05:17:33;;;;;;;9.98;5.35;;;9.50;99.90;;;;;;5444591;26;20275;-88
2024/04/13 05:19:59;;;;;;;9.25;6.10;;;9.50;99.90;;;;;;5458395;26;20279;-89
2024/04/13 05:22:28;;;;;;;8.52;5.47;;;9.60;99.90;;;;;;5456855;26;20285;-88
2024/04/13 05:24:58;;;;;;;10.40;6.03;;;9.60;99.90;;;;;;5451148;26;20268;-88
2024/04/13 05:27:26;;;;;;;8.77;5.45;;;9.60;99.90;;;;;;5453778;26;20305;-88
2024/04/13 05:29:53;;;;;;;8.77;6.13;;;9.50;99.90;;;;;;5453819;26;20237;-89
2024/04/13 05:32:22;;;;;;;10.27;6.28;;;9.60;99.90;;;;;;5453177;26;20277;-87
2024/04/13 05:34:49;;;;;;;9.88;6.07;;;9.70;99.90;;;;;;5448561;26;20289;-90
2024/04/13 05:37:18;;;;;;;10.73;6.07;;;9.70;99.90;;;;;;5454709;26;20277;-90
2024/04/13 05:39:44;;;;;;;8.80;4.80;;;9.80;99.90;;;;;;5451702;26;20237;-90
2024/04/13 05:42:15;;;;;;;8.85;6.18;;;9.90;99.90;;;;;;5434170;26;20233;-89
2024/04/13 05:44:42;;;;;;;10.15;6.82;;;10.00;99.90;;;;;;5436954;26;20342;-90
2024/04/13 05:47:11;;;;;;;7.90;5.97;;;10.10;99.90;;;;;;5449330;26;20816;-89
2024/04/13 05:49:38;;;;;;;9.13;6.35;;;10.20;99.90;;;;;;5454793;26;20238;-89
2024/04/13 05:52:08;;;;;;;11.48;6.40;;;10.20;99.90;;;;;;5455173;26;20731;-90
2024/04/13 05:54:34;;;;;;;10.40;6.55;;;10.30;99.90;;;;;;5453782;26;20325;-89
2024/04/13 05:57:03;;;;;;;14.98;7.22;;;10.40;99.90;;;;;;5454437;26;20272;-89
2024/04/13 05:59:32;;;;;;;9.38;6.75;;;10.60;99.90;;;;;;5453734;26;20589;-89
2024/04/13 06:02:03;;;;;;;10.68;6.63;;;10.60;99.90;;;;;;5432853;26;20637;-89
2024/04/13 06:04:29;;;;;;;12.75;6.88;;;10.70;99.90;;;;;;5439542;26;20233;-90
2024/04/13 06:06:58;;;;;;;10.88;6.90;;;10.80;99.90;;;;;;5452894;26;20299;-89
2024/04/13 06:09:24;;;;;;;11.25;6.82;;;10.90;99.90;;;;;;5452710;26;20253;-90
2024/04/13 06:11:54;;;;;;;11.05;6.80;;;11.00;99.90;;;;;;5441551;26;20227;-90
2024/04/13 06:14:20;;;;;;;12.73;7.07;;;11.10;99.90;;;;;;5443251;26;20309;-89
2024/04/13 06:16:51;;;;;;;11.82;7.00;;;11.20;99.90;;;;;;5453337;26;20254;-89
2024/04/13 06:19:21;;;;;;;11.95;6.50;;;11.30;99.90;;;;;;5435455;26;20238;-89
2024/04/13 06:21:53;;;;;;;11.95;7.05;;;11.40;99.90;;;;;;5448356;26;20249;-89
2024/04/13 06:24:19;;;;;;;9.98;6.45;;;11.40;99.90;;;;;;5438708;26;20269;-90
2024/04/13 06:26:49;;;;;;;11.98;6.63;;;11.50;99.90;;;;;;5453564;26;20305;-90
2024/04/13 06:29:15;;;;;;;11.70;6.88;;;11.60;99.90;;;;;;5446901;26;20243;-90
2024/04/13 06:31:44;;;;;;;12.65;6.35;;;11.70;99.90;;;;;;5439677;21;20268;-90
2024/04/13 06:34:12;;;;;;;10.55;6.43;;;11.80;99.90;;;;;;5382575;26;20279;-89
2024/04/13 06:36:41;;;;;;;9.52;5.95;;;11.90;99.90;;;;;;5394100;26;20281;-89
2024/04/13 06:39:08;;;;;;;9.40;6.15;;;12.00;99.90;;;;;;5400330;26;20733;-89
2024/04/13 06:41:37;;;;;;;9.88;6.82;;;12.10;99.90;;;;;;5376839;26;20287;-88
2024/04/13 06:44:03;;;;;;;12.68;5.93;;;12.20;99.90;;;;;;5351256;26;20237;-88
2024/04/13 06:46:33;;;;;;;10.27;5.60;;;12.30;99.90;;;;;;5351702;26;20297;-88
2024/04/13 06:48:59;;;;;;;7.53;5.80;;;12.20;99.90;;;;;;5357480;26;20275;-89
2024/04/13 06:51:30;;;;;;;13.23;6.15;;;12.30;99.90;;;;;;5348157;26;20652;-89
2024/04/13 06:53:56;;;;;;;6.60;5.40;;;12.40;99.90;;;;;;5339535;26;20236;-88
2024/04/13 06:56:25;;;;;;;9.63;6.00;;;12.50;99.90;;;;;;5364556;26;20313;-90
2024/04/13 06:58:51;;;;;;;10.68;6.13;;;12.60;99.90;;;;;;5356689;26;20245;-88
2024/04/13 07:01:20;;;;;;;9.18;5.88;;;12.80;99.90;;;;;;5351774;26;20282;-89
2024/04/13 07:03:47;;;;;;;9.77;6.07;;;12.80;99.90;;;;;;5360193;26;20279;-88
2024/04/13 07:06:15;;;;;;;11.75;6.57;;;12.90;99.90;;;;;;5359486;26;20259;-89
2024/04/13 07:08:45;;;;;;;8.30;5.80;;;13.00;99.90;;;;;;5366054;26;20342;-90
2024/04/13 07:11:13;;;;;;;8.85;5.82;;;13.10;99.90;;;;;;5374963;26;20325;-89
2024/04/13 07:13:40;;;;;;;12.98;6.32;;;13.20;99.90;;;;;;5381771;26;20348;-89
2024/04/13 07:16:09;;;;;;;13.80;7.68;;;13.30;99.90;;;;;;5368091;26;20282;-89
2024/04/13 07:18:35;;;;;;;8.85;6.07;;;13.50;99.90;;;;;;5379233;26;20256;-90
2024/04/13 07:21:04;;;;;;;9.43;6.18;;;13.70;99.90;;;;;;5373062;26;20567;-90
2024/04/13 07:23:31;;;;;;;11.23;6.47;;;13.80;99.90;;;;;;5350782;26;20698;-90
2024/04/13 07:26:03;;;;;;;8.65;6.00;;;13.90;99.90;;;;;;5368428;26;20241;-90
2024/04/13 07:28:31;;;;;;;10.65;6.50;;;14.00;99.90;;;;;;5349879;26;20633;-89
2024/04/13 07:31:00;;;;;;;11.00;6.43;;;14.20;99.90;;;;;;5352351;26;20283;-89
2024/04/13 07:33:27;;;;;;;9.27;6.15;;;14.30;99.90;;;;;;5361917;26;20336;-89
2024/04/13 07:35:56;;;;;;;8.50;5.55;;;14.40;99.90;;;;;;5386570;26;20685;-87
2024/04/13 07:38:24;;;;;;;13.43;6.00;;;14.60;99.90;;;;;;5382121;26;20328;-88
2024/04/13 07:40:53;;;;;;;11.40;6.32;;;14.80;99.90;;;;;;5360824;26;20393;-87
2024/04/13 07:43:23;;;;;;;11.88;5.95;;;14.90;99.90;;;;;;5368346;26;20261;-87
2024/04/13 07:45:52;;;;;;;12.55;4.95;;;15.00;99.90;;;;;;5352071;26;20702;-87
2024/04/13 07:48:18;;;;;;;9.77;5.80;;;15.10;99.90;;;;;;5356759;26;20240;-89
2024/04/13 07:50:47;;;;;;;11.30;6.03;;;15.20;99.90;;;;;;5370742;26;20256;-88
2024/04/13 07:53:19;;;;;;;12.18;5.72;;;15.40;99.90;;;;;;5368677;26;20260;-87
2024/04/13 07:55:47;;;;;;;14.07;6.18;;;15.50;99.90;;;;;;5373694;26;20741;-89
2024/04/13 07:58:16;;;;;;;12.10;5.75;;;15.70;99.90;;;;;;5358681;26;20264;-89
2024/04/13 08:00:49;;;;;;;13.38;6.70;;;15.80;99.90;;;;;;5355601;26;20346;-89
2024/04/13 08:03:16;;;;;;;9.68;6.05;;;15.90;99.90;;;;;;5366512;26;20318;-88
2024/04/13 08:05:45;;;;;;;10.10;5.43;;;16.00;99.90;;;;;;5354663;26;20277;-88
2024/04/13 08:08:11;;;;;;;8.88;5.50;;;16.10;99.90;;;;;;5363634;26;20349;-88
2024/04/13 08:10:42;;;;;;;11.02;6.13;;;16.20;99.90;;;;;;5368964;26;20301;-88
2024/04/13 08:13:10;;;;;;;11.77;5.45;;;16.30;99.90;;;;;;5364024;26;20225;-88
2024/04/13 08:15:41;;;;;;;9.88;6.05;;;16.50;99.90;;;;;;5364024;26;20229;-87
2024/04/13 08:18:10;;;;;;;10.70;6.45;;;16.60;99.90;;;;;;5362428;26;20278;-88
2024/04/13 08:20:39;;;;;;;8.70;5.78;;;16.80;99.90;;;;;;5373012;26;20256;-88
2024/04/13 08:23:05;;;;;;;9.70;5.40;;;17.00;99.90;;;;;;5364899;26;20252;-89
2024/04/13 08:25:34;;;;;;;6.95;5.20;;;17.10;99.90;;;;;;5366401;26;20247;-88
2024/04/13 08:28:00;;;;;;;9.02;5.28;;;17.30;99.90;;;;;;5360887;26;20275;-88
2024/04/13 08:30:29;;;;;;;9.40;5.20;;;17.50;99.90;;;;;;5363440;26;20280;-88
2024/04/13 08:32:56;;;;;;;9.80;5.10;;;17.50;99.90;;;;;;5360599;26;20276;-87
2024/04/13 08:35:27;;;;;;;9.23;5.68;;;17.70;99.90;;;;;;5365383;26;20497;-88
2024/04/13 08:37:53;;;;;;;6.78;5.07;;;17.80;99.90;;;;;;5362210;26;20949;-87
2024/04/13 08:40:22;;;;;;;7.20;5.03;;;18.00;99.90;;;;;;5356242;26;20245;-89
2024/04/13 08:42:53;;;;;;;10.98;5.38;;;18.20;99.90;;;;;;5356792;26;20236;-88
2024/04/13 08:45:23;;;;;;;8.60;5.25;;;18.40;99.90;;;;;;5352967;26;20293;-88
2024/04/13 08:47:50;;;;;;;11.65;5.22;;;18.60;99.90;;;;;;5349379;26;20237;-88
2024/04/13 08:50:18;;;;;;;6.60;4.72;;;18.70;99.90;;;;;;5354216;26;20256;-88
2024/04/13 08:52:49;;;;;;;7.07;4.07;;;18.80;99.90;;;;;;5357955;26;20358;-88
2024/04/13 08:55:21;;;;;;;7.15;4.22;;;18.90;99.90;;;;;;5341863;26;20279;-88
2024/04/13 08:57:48;;;;;;;7.18;4.00;;;19.00;99.90;;;;;;5344344;26;20255;-88
2024/04/13 09:00:19;;;;;;;5.50;3.67;;;19.00;99.90;;;;;;5355290;26;20239;-87
2024/04/13 09:02:48;;;;;;;7.88;3.78;;;19.20;99.90;;;;;;5354351;26;20222;-87
2024/04/13 09:05:17;;;;;;;10.15;3.28;;;19.30;99.90;;;;;;5361290;26;20233;-87
2024/04/13 09:07:48;;;;;;;4.32;2.85;;;19.40;99.90;;;;;;5356604;26;20240;-87
2024/04/13 09:10:20;;;;;;;7.68;3.10;;;19.50;99.90;;;;;;5342283;26;20241;-88
2024/04/13 09:12:47;;;;;;;4.97;2.58;;;19.60;99.90;;;;;;5360992;26;20277;-87
2024/04/13 09:15:16;;;;;;;4.78;2.50;;;19.80;99.90;;;;;;5350678;26;20338;-87
2024/04/13 09:17:42;;;;;;;6.43;3.42;;;19.90;99.90;;;;;;5357957;26;20241;-88
2024/04/13 09:20:12;;;;;;;7.72;4.22;;;20.00;99.90;;;;;;5354052;26;20574;-88
2024/04/13 09:22:40;;;;;;;7.63;4.03;;;20.20;99.90;;;;;;5352790;26;20271;-87
2024/04/13 09:25:21;;;;;;;6.65;4.10;;;20.30;99.90;;;;;;5357982;26;20279;-88
2024/04/13 09:27:58;;;;;;;6.63;4.22;;;20.40;99.90;;;;;;5340768;26;20244;-86
2024/04/13 09:30:27;;;;;;;5.03;3.63;;;20.60;99.90;;;;;;5346845;26;20274;-87
2024/04/13 09:33:00;;;;;;;6.10;3.80;;;20.70;99.90;;;;;;5365520;26;20229;-88
2024/04/13 09:35:29;;;;;;;6.20;3.63;;;20.80;99.90;;;;;;5359318;26;20237;-89
2024/04/13 09:37:57;;;;;;;5.65;2.72;;;20.90;99.90;;;;;;5358744;26;20291;-87
2024/04/13 09:40:30;;;;;;;6.55;3.63;;;21.00;99.90;;;;;;5352087;26;20313;-88
2024/04/13 09:42:56;;;;;;;4.03;2.95;;;21.00;99.90;;;;;;5366420;26;20237;-87
2024/04/13 09:45:25;;;;;;;6.25;3.15;;;21.10;99.90;;;;;;5349673;26;20305;-87
2024/04/13 09:47:53;;;;;;;5.70;2.90;;;21.20;99.90;;;;;;5348039;26;20276;-88
2024/04/13 09:50:22;;;;;;;4.80;3.17;;;21.40;99.90;;;;;;5366777;26;20315;-88
2024/04/13 09:52:49;;;;;;;5.30;2.65;;;21.40;99.90;;;;;;5360504;26;20241;-87
2024/04/13 09:55:18;;;;;;;7.18;2.80;;;21.50;99.90;;;;;;5356509;26;20237;-87
2024/04/13 09:57:49;;;;;;;5.47;2.78;;;21.60;99.90;;;;;;5354531;26;20345;-86
2024/04/13 10:00:19;;;;;;;7.00;2.85;;;21.60;99.90;;;;;;5353220;26;20240;-86
2024/04/13 10:02:46;;;;;;;4.63;3.13;;;21.80;99.90;;;;;;5362366;26;20279;-89
2024/04/13 10:05:14;;;;;;;5.72;3.70;;;21.90;99.90;;;;;;5354395;26;20310;-86
2024/04/13 10:07:41;;;;;;;7.85;3.10;;;21.90;99.90;;;;;;5345183;26;20691;-87
2024/04/13 10:10:13;;;;;;;4.47;2.65;;;22.00;99.90;;;;;;5350402;26;20569;-87
2024/04/13 10:12:41;;;;;;;8.75;3.13;;;22.10;99.90;;;;;;5355159;26;20338;-87
2024/04/13 10:15:14;;;;;;;4.68;2.55;;;22.20;99.50;;;;;;5361523;26;20232;-88
2024/04/13 10:17:43;;;;;;;10.35;2.35;;;22.20;99.90;;;;;;5354822;26;20244;-87
2024/04/13 10:20:12;;;;;;;6.15;2.50;;;22.20;99.90;;;;;;5373744;26;20282;-88
2024/04/13 10:22:39;;;;;;;6.10;2.80;;;22.30;99.90;;;;;;5372561;26;20287;-87
2024/04/13 10:25:09;;;;;;;5.57;2.97;;;22.30;99.90;;;;;;5372778;26;20282;-87
2024/04/13 10:27:35;;;;;;;4.53;3.20;;;22.40;99.90;;;;;;5376948;26;20245;-87
2024/04/13 10:30:04;;;;;;;6.82;3.05;;;22.60;99.90;;;;;;5375610;26;20281;-86
2024/04/13 10:32:33;;;;;;;10.23;3.38;;;22.70;99.90;;;;;;5364491;26;20271;-86
2024/04/13 10:35:12;;;;;;;3.47;2.65;;;22.70;99.10;;;;;;5365831;26;20776;-87
2024/04/13 10:37:39;;;;;;;5.05;2.92;;;22.80;98.80;;;;;;5369479;26;20811;-87
2024/04/13 10:40:09;;;;;;;5.50;3.17;;;23.00;98.50;;;;;;5361784;26;20295;-87
2024/04/13 10:42:45;;;;;;;6.07;2.70;;;23.00;98.50;;;;;;5360497;26;20244;-89
2024/04/13 10:45:15;;;;;;;5.30;2.60;;;23.10;98.70;;;;;;5367486;26;20745;-88
2024/04/13 10:47:44;;;;;;;8.20;3.10;;;23.20;98.30;;;;;;5359497;26;20248;-87
2024/04/13 10:50:14;;;;;;;7.38;2.92;;;23.20;99.90;;;;;;5359552;26;20225;-87
2024/04/13 10:52:40;;;;;;;9.43;3.25;;;23.20;99.40;;;;;;5373650;26;20309;-89
2024/04/13 10:55:13;;;;;;;5.85;2.80;;;23.20;99.50;;;;;;5370424;26;20264;-88
2024/04/13 10:57:40;;;;;;;6.10;2.78;;;23.10;98.40;;;;;;5362245;26;20237;-88
2024/04/13 11:00:11;;;;;;;7.35;3.20;;;23.10;98.90;;;;;;5371585;26;20267;-88
2024/04/13 11:02:37;;;;;;;5.63;3.33;;;23.20;98.80;;;;;;5355651;26;20605;-87
2024/04/13 11:05:10;;;;;;;8.63;3.50;;;23.20;98.60;;;;;;5350613;26;20233;-88
2024/04/13 11:07:36;;;;;;;8.35;3.38;;;23.40;97.30;;;;;;5344105;26;20237;-88
2024/04/13 11:10:05;;;;;;;9.50;3.45;;;23.70;97.40;;;;;;5347562;26;20825;-89
2024/04/13 11:12:32;;;;;;;5.80;2.97;;;23.80;96.70;;;;;;5352707;26;20249;-89
2024/04/13 11:15:00;;;;;;;5.18;3.13;;;23.90;98.40;;;;;;5347904;26;20267;-87
2024/04/13 11:17:27;;;;;;;7.93;3.10;;;23.70;98.80;;;;;;5355021;26;20253;-88
2024/04/13 11:19:56;;;;;;;5.78;3.25;;;23.70;97.50;;;;;;5353323;26;20240;-87
2024/04/13 11:22:27;;;;;;;5.20;3.22;;;23.80;96.50;;;;;;5348410;26;20341;-88
2024/04/13 11:24:56;;;;;;;8.63;3.40;;;24.10;96.00;;;;;;5342302;26;20756;-88
2024/04/13 11:27:22;;;;;;;4.68;3.33;;;24.10;95.80;;;;;;5342790;26;20279;-88
2024/04/13 11:29:52;;;;;;;4.63;3.10;;;24.30;95.80;;;;;;5359416;26;20277;-89
2024/04/13 11:32:18;;;;;;;5.38;2.80;;;24.40;95.80;;;;;;5345856;26;20347;-88
2024/04/13 11:34:47;;;;;;;7.00;3.25;;;24.60;95.00;;;;;;5353822;26;20291;-88
2024/04/13 11:37:14;;;;;;;4.40;3.25;;;24.70;95.80;;;;;;5347238;26;20587;-89
2024/04/13 11:39:47;;;;;;;5.90;3.38;;;24.80;95.30;;;;;;5350840;26;20233;-89
2024/04/13 11:42:14;;;;;;;3.85;3.00;;;24.80;95.30;;;;;;5353836;26;20300;-89
2024/04/13 11:44:44;;;;;;;6.25;3.38;;;24.90;96.00;;;;;;5354813;26;20858;-89
2024/04/13 11:47:10;;;;;;;6.88;3.15;;;24.80;94.70;;;;;;5358771;26;20233;-89
2024/04/13 11:49:40;;;;;;;8.07;3.10;;;24.90;96.30;;;;;;5353552;26;20240;-87
2024/04/13 11:52:10;;;;;;;9.02;3.10;;;25.20;94.70;;;;;;5363663;26;20863;-90
2024/04/13 11:54:39;;;;;;;5.63;3.10;;;25.50;93.60;;;;;;5355874;26;20305;-87
2024/04/13 11:57:12;;;;;;;5.55;3.05;;;25.60;94.70;;;;;;5359176;26;20241;-89
2024/04/13 11:59:43;;;;;;;4.03;3.30;;;25.80;95.10;;;;;;5370822;26;20237;-89
2024/04/13 12:02:10;;;;;;;4.88;2.80;;;26.20;93.40;;;;;;5374832;26;20239;-89
2024/04/13 12:04:40;;;;;;;5.93;3.17;;;26.60;92.90;;;;;;5364687;26;20593;-89
2024/04/13 12:07:11;;;;;;;9.75;3.25;;;27.00;92.20;;;;;;5368091;26;20245;-88
2024/04/13 12:09:41;;;;;;;5.00;3.00;;;27.50;91.20;;;;;;5375486;26;20307;-88
2024/04/13 12:12:11;;;;;;;10.25;3.42;;;28.00;89.20;;;;;;5345255;26;20241;-87
2024/04/13 12:14:43;;;;;;;4.55;3.00;;;28.30;90.50;;;;;;5376412;26;20252;-87
2024/04/13 12:17:09;;;;;;;9.73;3.30;;;28.60;90.30;;;;;;5362194;26;20251;-88
2024/04/13 12:19:38;;;;;;;5.15;2.90;;;28.90;88.90;;;;;;5364196;26;20267;-87
2024/04/13 12:22:04;;;;;;;3.53;2.83;;;28.70;89.90;;;;;;5355626;26;20679;-86
2024/04/13 12:24:35;;;;;;;3.97;2.80;;;29.00;84.80;;;;;;5353863;26;20231;-90
2024/04/13 12:27:03;;;;;;;6.43;3.10;;;29.10;82.90;;;;;;5345783;26;20233;-87
2024/04/13 12:29:32;;;;;;;4.43;3.13;;;29.30;81.50;;;;;;5371562;26;20271;-88
2024/04/13 12:37:15;;;;;;;4.53;2.42;;;30.30;79.80;;;;;;5411027;26;20278;-90
2024/04/13 12:39:42;;;;;;;6.30;3.00;;;30.30;83.00;;;;;;5416393;26;20238;-92
2024/04/13 12:42:11;;;;;;;4.47;3.40;;;30.50;84.20;;;;;;5416018;26;20251;-91
2024/04/13 12:44:38;;;;;;;7.65;2.58;;;30.90;79.00;;;;;;5413351;26;20276;-91
2024/04/13 12:47:08;;;;;;;5.15;3.35;;;31.10;77.20;;;;;;5421826;26;20301;-92
2024/04/13 12:49:35;;;;;;;5.10;3.08;;;31.30;79.20;;;;;;5423598;26;20280;-92
2024/04/13 12:52:04;;;;;;;7.63;3.60;;;31.60;81.20;;;;;;5422182;26;20276;-91
2024/04/13 12:54:33;;;;;;;5.70;3.47;;;32.00;76.30;;;;;;5426515;26;20238;-92
2024/04/13 12:57:02;;;;;;;4.97;3.25;;;32.40;74.70;;;;;;5427633;26;20234;-92
2024/04/13 12:59:28;;;;;;;6.40;2.97;;;32.60;74.80;;;;;;5430001;26;20704;-92